createdAt,value
2023-08-31T00:00:13.058Z,16.22
2023-08-31T00:01:15.239Z,16.19
2023-08-31T00:02:17.452Z,16.17
2023-08-31T00:03:20.701Z,16.15
2023-08-31T00:04:23.004Z,16.10
2023-08-31T00:05:26.192Z,16.12
2023-08-31T00:06:28.489Z,16.17
2023-08-31T00:07:30.706Z,16.21
2023-08-31T00:08:34.021Z,16.24
2023-08-31T00:09:36.223Z,16.20
2023-08-31T00:10:38.639Z,16.21
2023-08-31T00:11:41.316Z,16.24
2023-08-31T00:12:43.458Z,16.21
2023-08-31T00:13:45.627Z,16.19
2023-08-31T00:14:47.788Z,16.17
2023-08-31T00:15:50.039Z,16.15
2023-08-31T00:16:53.376Z,16.17
2023-08-31T00:17:56.028Z,16.18
2023-08-31T00:18:58.363Z,16.23
2023-08-31T00:20:00.760Z,16.27
2023-08-31T00:21:03.615Z,16.24
2023-08-31T00:22:05.771Z,16.23
2023-08-31T00:23:08.011Z,16.22
2023-08-31T00:24:11.293Z,16.23
2023-08-31T00:25:13.407Z,16.17
2023-08-31T00:26:15.989Z,16.20
2023-08-31T00:27:18.617Z,16.18
2023-08-31T00:28:21.164Z,16.17
2023-08-31T00:29:24.465Z,16.18
2023-08-31T00:30:30.714Z,16.25
2023-08-31T00:31:33.017Z,16.24
2023-08-31T00:32:35.828Z,16.28
2023-08-31T00:33:40.820Z,16.28
2023-08-31T00:34:43.475Z,16.28
2023-08-31T00:35:47.670Z,16.28
2023-08-31T00:36:50.005Z,16.25
2023-08-31T00:37:52.534Z,16.29
2023-08-31T00:38:55.144Z,16.27
2023-08-31T00:39:57.272Z,16.27
2023-08-31T00:40:59.409Z,16.33
2023-08-31T00:42:01.772Z,16.35
2023-08-31T00:43:04.223Z,16.38
2023-08-31T00:44:06.572Z,16.40
2023-08-31T00:45:09.422Z,16.37
2023-08-31T00:46:11.650Z,16.39
2023-08-31T00:47:16.914Z,16.40
2023-08-31T00:48:19.388Z,16.42
2023-08-31T00:49:21.564Z,16.43
2023-08-31T00:50:23.734Z,16.44
2023-08-31T00:51:26.244Z,16.48
2023-08-31T00:52:28.451Z,16.46
2023-08-31T00:53:31.357Z,16.39
2023-08-31T00:54:33.972Z,16.38
2023-08-31T00:55:36.115Z,16.37
2023-08-31T00:56:38.270Z,16.32
2023-08-31T00:57:42.160Z,16.31
2023-08-31T00:58:44.378Z,16.31
2023-08-31T00:59:46.879Z,16.43
2023-08-31T01:01:23.713Z,16.42
2023-08-31T01:02:49.475Z,16.43
2023-08-31T01:04:11.306Z,16.50
2023-08-31T01:05:23.372Z,16.57
2023-08-31T01:06:37.845Z,16.57
2023-08-31T01:08:10.141Z,16.56
2023-08-31T01:09:45.075Z,16.57
2023-08-31T01:11:00.680Z,16.58
2023-08-31T01:12:14.250Z,16.54
2023-08-31T01:13:20.206Z,16.57
2023-08-31T01:14:25.299Z,16.56
2023-08-31T01:15:27.787Z,16.54
2023-08-31T01:16:30.291Z,16.59
2023-08-31T01:17:33.161Z,16.57
2023-08-31T01:18:38.442Z,16.63
2023-08-31T01:19:51.461Z,16.65
2023-08-31T01:21:19.043Z,16.64
2023-08-31T01:22:32.359Z,16.57
2023-08-31T01:23:56.801Z,16.38
2023-08-31T01:25:00.026Z,16.42
2023-08-31T01:26:03.005Z,16.34
2023-08-31T01:27:05.649Z,16.33
2023-08-31T01:28:08.898Z,16.26
2023-08-31T01:29:11.050Z,16.24
2023-08-31T01:30:13.228Z,16.28
2023-08-31T01:31:18.366Z,16.28
2023-08-31T01:32:20.509Z,16.27
2023-08-31T01:33:22.703Z,16.24
2023-08-31T01:34:24.872Z,16.31
2023-08-31T01:35:27.373Z,16.28
2023-08-31T01:36:30.954Z,16.26
2023-08-31T01:37:53.061Z,16.25
2023-08-31T01:39:26.531Z,16.25
2023-08-31T01:40:46.767Z,16.20
2023-08-31T01:41:52.723Z,16.21
2023-08-31T01:42:56.329Z,16.20
2023-08-31T01:43:59.193Z,16.20
2023-08-31T01:45:01.967Z,16.24
2023-08-31T01:46:04.214Z,16.27
2023-08-31T01:47:07.631Z,16.32
2023-08-31T01:48:10.674Z,16.32
2023-08-31T01:49:12.998Z,16.34
2023-08-31T01:50:15.160Z,16.35
2023-08-31T01:51:18.446Z,16.31
2023-08-31T01:52:20.627Z,16.32
2023-08-31T01:53:23.826Z,16.31
2023-08-31T01:54:26.108Z,16.33
2023-08-31T01:55:28.240Z,16.31
2023-08-31T01:56:30.393Z,16.27
2023-08-31T01:57:33.550Z,16.25
2023-08-31T01:58:35.869Z,16.25
2023-08-31T01:59:38.047Z,16.24
2023-08-31T02:00:40.168Z,16.20
2023-08-31T02:01:42.417Z,16.25
2023-08-31T02:02:44.719Z,16.30
2023-08-31T02:03:47.045Z,16.31
2023-08-31T02:04:49.218Z,16.34
2023-08-31T02:05:51.361Z,16.34
2023-08-31T02:06:53.508Z,16.34
2023-08-31T02:07:55.652Z,16.37
2023-08-31T02:08:57.767Z,16.39
2023-08-31T02:09:59.944Z,16.39
2023-08-31T02:11:02.120Z,16.43
2023-08-31T02:12:04.611Z,16.42
2023-08-31T02:13:06.759Z,16.43
2023-08-31T02:14:08.870Z,16.39
2023-08-31T02:15:11.198Z,16.41
2023-08-31T02:16:13.389Z,16.41
2023-08-31T02:17:15.578Z,16.37
2023-08-31T02:18:17.708Z,16.35
2023-08-31T02:19:19.839Z,16.30
2023-08-31T02:20:22.151Z,16.26
2023-08-31T02:21:24.382Z,16.30
2023-08-31T02:22:26.699Z,16.32
2023-08-31T02:23:28.866Z,16.32
2023-08-31T02:24:31.200Z,16.32
2023-08-31T02:25:33.781Z,16.28
2023-08-31T02:26:38.795Z,16.26
2023-08-31T02:27:40.919Z,16.25
2023-08-31T02:28:43.140Z,16.27
2023-08-31T02:29:45.273Z,16.26
2023-08-31T02:30:47.530Z,16.24
2023-08-31T02:31:49.811Z,16.29
2023-08-31T02:32:52.103Z,16.23
2023-08-31T02:33:54.554Z,16.23
2023-08-31T02:34:56.668Z,16.20
2023-08-31T02:35:59.439Z,16.18
2023-08-31T02:37:01.615Z,16.17
2023-08-31T02:38:03.888Z,16.17
2023-08-31T02:39:06.075Z,16.15
2023-08-31T02:40:09.698Z,16.14
2023-08-31T02:41:11.896Z,16.13
2023-08-31T02:42:15.544Z,16.08
2023-08-31T02:43:17.748Z,16.05
2023-08-31T02:44:20.542Z,16.06
2023-08-31T02:45:22.742Z,16.01
2023-08-31T02:46:25.329Z,16.04
2023-08-31T02:47:27.558Z,16.06
2023-08-31T02:48:31.305Z,16.03
2023-08-31T02:49:33.556Z,16.00
2023-08-31T02:50:36.223Z,16.05
2023-08-31T02:51:38.354Z,16.03
2023-08-31T02:52:41.552Z,15.99
2023-08-31T02:53:43.686Z,15.97
2023-08-31T02:54:45.816Z,15.95
2023-08-31T02:55:47.947Z,15.96
2023-08-31T02:56:50.191Z,15.93
2023-08-31T02:57:52.344Z,15.91
2023-08-31T02:58:54.601Z,15.90
2023-08-31T02:59:56.792Z,15.90
2023-08-31T03:01:14.385Z,15.91
2023-08-31T03:02:16.762Z,15.88
2023-08-31T03:03:19.139Z,15.87
2023-08-31T03:04:21.313Z,15.87
2023-08-31T03:05:23.511Z,15.86
2023-08-31T03:06:26.986Z,15.86
2023-08-31T03:07:29.111Z,15.84
2023-08-31T03:08:31.276Z,15.85
2023-08-31T03:09:33.440Z,15.86
2023-08-31T03:10:36.862Z,15.82
2023-08-31T03:11:38.973Z,15.82
2023-08-31T03:12:41.106Z,15.83
2023-08-31T03:13:43.345Z,15.82
2023-08-31T03:14:45.534Z,15.82
2023-08-31T03:15:47.701Z,15.86
2023-08-31T03:16:50.187Z,15.87
2023-08-31T03:17:52.460Z,15.85
2023-08-31T03:18:54.713Z,15.86
2023-08-31T03:19:56.891Z,15.84
2023-08-31T03:20:59.142Z,15.84
2023-08-31T03:22:01.299Z,15.90
2023-08-31T03:23:03.864Z,15.89
2023-08-31T03:24:06.178Z,15.91
2023-08-31T03:25:09.024Z,15.90
2023-08-31T03:26:11.169Z,15.95
2023-08-31T03:27:13.375Z,15.92
2023-08-31T03:28:15.533Z,15.93
2023-08-31T03:29:17.654Z,15.88
2023-08-31T03:30:19.911Z,15.87
2023-08-31T03:31:22.033Z,15.87
2023-08-31T03:32:24.203Z,15.87
2023-08-31T03:33:26.401Z,15.84
2023-08-31T03:34:31.975Z,15.82
2023-08-31T03:35:34.236Z,15.83
2023-08-31T03:36:36.396Z,15.80
2023-08-31T03:37:38.802Z,15.79
2023-08-31T03:38:41.754Z,15.80
2023-08-31T03:39:44.184Z,15.80
2023-08-31T03:40:58.620Z,15.77
2023-08-31T03:42:00.763Z,15.76
2023-08-31T03:43:02.948Z,15.78
2023-08-31T03:44:05.305Z,15.76
2023-08-31T03:45:07.829Z,15.74
2023-08-31T03:46:10.063Z,15.72
2023-08-31T03:47:12.234Z,15.69
2023-08-31T03:48:14.428Z,15.68
2023-08-31T03:49:16.582Z,15.68
2023-08-31T03:50:18.745Z,15.68
2023-08-31T03:51:20.908Z,15.68
2023-08-31T03:52:24.240Z,15.67
2023-08-31T03:53:26.502Z,15.67
2023-08-31T03:54:28.624Z,15.61
2023-08-31T03:55:30.774Z,15.56
2023-08-31T03:56:32.954Z,15.60
2023-08-31T03:57:35.125Z,15.60
2023-08-31T03:58:37.289Z,15.58
2023-08-31T03:59:39.482Z,15.63
2023-08-31T04:00:41.653Z,15.65
2023-08-31T04:01:43.817Z,15.67
2023-08-31T04:02:46.243Z,15.64
2023-08-31T04:03:48.614Z,15.64
2023-08-31T04:04:50.809Z,15.61
2023-08-31T04:05:56.675Z,15.59
2023-08-31T04:06:59.818Z,15.55
2023-08-31T04:08:02.089Z,15.54
2023-08-31T04:09:04.522Z,15.54
2023-08-31T04:10:07.090Z,15.55
2023-08-31T04:11:09.370Z,15.51
2023-08-31T04:12:11.493Z,15.50
2023-08-31T04:13:13.862Z,15.53
2023-08-31T04:14:16.188Z,15.51
2023-08-31T04:15:18.707Z,15.51
2023-08-31T04:16:20.960Z,15.51
2023-08-31T04:17:23.125Z,15.47
2023-08-31T04:18:25.473Z,15.48
2023-08-31T04:19:27.647Z,15.50
2023-08-31T04:20:29.890Z,15.47
2023-08-31T04:21:32.074Z,15.50
2023-08-31T04:22:34.190Z,15.51
2023-08-31T04:23:36.348Z,15.50
2023-08-31T04:24:38.492Z,15.58
2023-08-31T04:25:40.624Z,15.59
2023-08-31T04:26:44.203Z,15.61
2023-08-31T04:27:46.551Z,15.61
2023-08-31T04:28:48.987Z,15.63
2023-08-31T04:29:51.151Z,15.62
2023-08-31T04:30:53.518Z,15.59
2023-08-31T04:31:56.299Z,15.55
2023-08-31T04:32:58.448Z,15.56
2023-08-31T04:34:00.825Z,15.52
2023-08-31T04:35:06.830Z,15.51
2023-08-31T04:36:09.010Z,15.52
2023-08-31T04:37:11.207Z,15.53
2023-08-31T04:38:13.397Z,15.54
2023-08-31T04:39:15.618Z,15.60
2023-08-31T04:40:17.777Z,15.67
2023-08-31T04:41:20.165Z,15.77
2023-08-31T04:42:22.698Z,15.79
2023-08-31T04:43:24.876Z,15.80
2023-08-31T04:44:27.053Z,15.77
2023-08-31T04:45:29.241Z,15.76
2023-08-31T04:46:31.431Z,15.79
2023-08-31T04:47:34.132Z,15.80
2023-08-31T04:48:37.295Z,15.81
2023-08-31T04:49:39.524Z,15.83
2023-08-31T04:50:41.654Z,15.90
2023-08-31T04:51:45.353Z,15.95
2023-08-31T04:52:47.581Z,16.01
2023-08-31T04:53:49.693Z,16.08
2023-08-31T04:54:52.034Z,16.06
2023-08-31T04:55:54.276Z,16.07
2023-08-31T04:56:56.433Z,16.09
2023-08-31T04:57:58.864Z,16.15
2023-08-31T04:59:01.554Z,16.15
2023-08-31T05:00:04.653Z,16.21
2023-08-31T05:01:06.791Z,16.32
2023-08-31T05:02:08.951Z,16.40
2023-08-31T05:03:11.669Z,16.39
2023-08-31T05:04:14.102Z,16.33
2023-08-31T05:05:16.404Z,16.29
2023-08-31T05:06:18.533Z,16.28
2023-08-31T05:07:20.700Z,16.29
2023-08-31T05:08:22.865Z,16.30
2023-08-31T05:09:28.044Z,16.25
2023-08-31T05:10:30.262Z,16.28
2023-08-31T05:11:32.408Z,16.35
2023-08-31T05:12:34.587Z,16.39
2023-08-31T05:13:36.771Z,16.46
2023-08-31T05:14:40.881Z,16.48
2023-08-31T05:15:43.097Z,16.47
2023-08-31T05:16:45.961Z,16.43
2023-08-31T05:17:49.694Z,16.49
2023-08-31T05:18:51.943Z,16.46
2023-08-31T05:19:54.237Z,16.48
2023-08-31T05:20:56.367Z,16.57
2023-08-31T05:21:58.669Z,16.57
2023-08-31T05:23:00.832Z,16.65
2023-08-31T05:24:02.963Z,16.70
2023-08-31T05:25:05.678Z,16.70
2023-08-31T05:26:07.886Z,16.72
2023-08-31T05:27:10.023Z,16.81
2023-08-31T05:28:12.172Z,16.86
2023-08-31T05:29:14.323Z,16.93
2023-08-31T05:30:16.502Z,16.93
2023-08-31T05:31:18.664Z,16.99
2023-08-31T05:32:20.836Z,17.03
2023-08-31T05:33:23.544Z,17.07
2023-08-31T05:34:26.412Z,17.08
2023-08-31T05:35:28.564Z,17.07
2023-08-31T05:36:30.923Z,17.12
2023-08-31T05:37:34.444Z,17.19
2023-08-31T05:38:36.583Z,17.26
2023-08-31T05:39:38.742Z,17.34
2023-08-31T05:40:42.893Z,17.32
2023-08-31T05:41:45.101Z,17.31
2023-08-31T05:42:47.307Z,17.27
2023-08-31T05:43:49.458Z,17.26
2023-08-31T05:44:51.601Z,17.29
2023-08-31T05:45:53.790Z,17.33
2023-08-31T05:46:55.978Z,17.30
2023-08-31T05:47:58.208Z,17.22
2023-08-31T05:49:00.430Z,17.11
2023-08-31T05:50:03.067Z,17.13
2023-08-31T05:51:05.371Z,17.07
2023-08-31T05:52:07.601Z,17.05
2023-08-31T05:53:10.492Z,17.03
2023-08-31T05:54:14.324Z,17.03
2023-08-31T05:55:16.484Z,17.04
2023-08-31T05:56:20.745Z,16.97
2023-08-31T05:57:23.406Z,16.94
2023-08-31T05:58:25.558Z,16.97
2023-08-31T05:59:27.698Z,17.04
2023-08-31T06:00:29.938Z,17.06
2023-08-31T06:01:32.178Z,16.98
2023-08-31T06:02:34.346Z,16.92
2023-08-31T06:03:36.560Z,16.91
2023-08-31T06:04:38.893Z,16.98
2023-08-31T06:05:41.070Z,17.05
2023-08-31T06:06:43.206Z,17.00
2023-08-31T06:07:45.359Z,17.00
2023-08-31T06:08:47.525Z,16.93
2023-08-31T06:09:49.702Z,16.91
2023-08-31T06:10:52.230Z,17.02
2023-08-31T06:11:54.385Z,17.13
2023-08-31T06:12:56.540Z,17.15
2023-08-31T06:13:58.758Z,17.22
2023-08-31T06:15:01.356Z,17.35
2023-08-31T06:16:03.682Z,17.44
2023-08-31T06:17:05.794Z,17.59
2023-08-31T06:18:08.084Z,17.74
2023-08-31T06:19:10.247Z,17.89
2023-08-31T06:20:12.601Z,18.07
2023-08-31T06:21:14.808Z,18.13
2023-08-31T06:22:16.956Z,18.15
2023-08-31T06:23:19.177Z,18.23
2023-08-31T06:24:21.337Z,18.25
2023-08-31T06:25:25.635Z,18.32
2023-08-31T06:26:27.963Z,18.41
2023-08-31T06:27:30.161Z,18.52
2023-08-31T06:28:32.405Z,18.57
2023-08-31T06:29:34.516Z,18.64
2023-08-31T06:30:36.780Z,18.52
2023-08-31T06:31:38.971Z,18.52
2023-08-31T06:32:41.219Z,18.49
2023-08-31T06:33:43.439Z,18.45
2023-08-31T06:34:46.450Z,18.56
2023-08-31T06:35:53.062Z,18.70
2023-08-31T06:36:55.463Z,18.93
2023-08-31T06:37:58.767Z,18.94
2023-08-31T06:39:00.956Z,19.00
2023-08-31T06:40:03.148Z,19.06
2023-08-31T06:41:05.312Z,19.13
2023-08-31T06:42:07.552Z,19.15
2023-08-31T06:43:09.674Z,19.23
2023-08-31T06:44:11.860Z,19.11
2023-08-31T06:45:14.085Z,19.14
2023-08-31T06:46:23.842Z,19.17
2023-08-31T06:47:27.207Z,19.13
2023-08-31T06:48:29.868Z,19.22
2023-08-31T06:49:34.174Z,19.23
2023-08-31T06:50:36.975Z,19.05
2023-08-31T06:51:39.120Z,18.93
2023-08-31T06:52:42.410Z,18.84
2023-08-31T06:53:45.189Z,18.78
2023-08-31T06:54:47.352Z,18.78
2023-08-31T06:55:49.527Z,18.85
2023-08-31T06:56:51.684Z,18.85
2023-08-31T06:57:54.854Z,18.86
2023-08-31T06:58:58.032Z,18.90
2023-08-31T07:00:00.182Z,18.85
2023-08-31T07:01:06.725Z,18.94
2023-08-31T07:02:08.909Z,18.99
2023-08-31T07:03:11.951Z,19.07
2023-08-31T07:04:14.363Z,18.96
2023-08-31T07:05:16.708Z,19.05
2023-08-31T07:06:18.861Z,19.08
2023-08-31T07:07:21.057Z,19.04
2023-08-31T07:08:23.232Z,18.91
2023-08-31T07:09:25.388Z,19.00
2023-08-31T07:10:27.615Z,18.95
2023-08-31T07:11:29.725Z,18.91
2023-08-31T07:12:31.904Z,18.93
2023-08-31T07:13:34.075Z,18.93
2023-08-31T07:14:36.304Z,18.93
2023-08-31T07:15:38.521Z,18.95
2023-08-31T07:16:40.682Z,18.92
2023-08-31T07:17:42.878Z,18.92
2023-08-31T07:18:45.077Z,18.96
2023-08-31T07:19:47.456Z,19.01
2023-08-31T07:20:49.822Z,19.03
2023-08-31T07:21:52.090Z,19.07
2023-08-31T07:22:54.373Z,19.08
2023-08-31T07:23:56.845Z,19.18
2023-08-31T07:24:59.034Z,19.22
2023-08-31T07:26:01.501Z,19.22
2023-08-31T07:27:04.558Z,19.40
2023-08-31T07:28:06.873Z,19.37
2023-08-31T07:29:08.990Z,19.42
2023-08-31T07:30:11.689Z,19.46
2023-08-31T07:31:14.109Z,19.58
2023-08-31T07:32:16.264Z,19.50
2023-08-31T07:34:26.613Z,19.66
2023-08-31T07:35:28.750Z,19.67
2023-08-31T07:36:30.928Z,19.67
2023-08-31T07:37:33.134Z,19.66
2023-08-31T07:38:35.654Z,19.80
2023-08-31T07:39:37.951Z,19.94
2023-08-31T07:40:40.080Z,20.00
2023-08-31T07:41:42.215Z,20.12
2023-08-31T07:42:44.385Z,20.17
2023-08-31T07:44:53.546Z,20.09
2023-08-31T07:45:55.673Z,20.13
2023-08-31T07:46:57.951Z,20.17
2023-08-31T07:48:00.174Z,20.20
2023-08-31T07:49:03.309Z,20.34
2023-08-31T07:50:06.031Z,20.46
2023-08-31T07:51:08.235Z,20.46
2023-08-31T07:52:10.379Z,20.47
2023-08-31T07:53:13.139Z,20.61
2023-08-31T07:54:22.481Z,20.63
2023-08-31T07:55:24.642Z,20.66
2023-08-31T07:56:26.784Z,20.75
2023-08-31T07:57:29.017Z,20.92
2023-08-31T07:58:31.187Z,21.08
2023-08-31T07:59:33.383Z,21.05
2023-08-31T08:00:35.653Z,21.07
2023-08-31T08:01:37.978Z,21.04
2023-08-31T08:02:40.458Z,21.07
2023-08-31T08:03:42.673Z,21.16
2023-08-31T08:04:47.157Z,21.13
2023-08-31T08:05:49.567Z,21.08
2023-08-31T08:06:51.921Z,21.06
2023-08-31T08:07:54.093Z,21.06
2023-08-31T08:08:56.201Z,21.01
2023-08-31T08:09:58.450Z,21.10
2023-08-31T08:11:01.101Z,21.27
2023-08-31T08:12:03.420Z,21.32
2023-08-31T08:13:06.082Z,21.36
2023-08-31T08:14:08.261Z,21.58
2023-08-31T08:15:10.616Z,21.53
2023-08-31T08:16:12.875Z,21.84
2023-08-31T08:17:15.121Z,21.88
2023-08-31T08:18:17.265Z,21.90
2023-08-31T08:19:23.935Z,22.05
2023-08-31T08:20:26.204Z,21.88
2023-08-31T08:21:28.397Z,21.91
2023-08-31T08:22:30.559Z,21.94
2023-08-31T08:23:32.884Z,21.90
2023-08-31T08:24:35.008Z,22.04
2023-08-31T08:25:37.138Z,22.04
2023-08-31T08:26:39.298Z,22.02
2023-08-31T08:27:41.424Z,22.15
2023-08-31T08:28:43.559Z,21.97
2023-08-31T08:29:48.468Z,21.87
2023-08-31T08:30:51.331Z,21.77
2023-08-31T08:31:53.513Z,21.84
2023-08-31T08:32:55.734Z,21.69
2023-08-31T08:33:57.995Z,21.68
2023-08-31T08:35:00.240Z,21.97
2023-08-31T08:36:02.464Z,22.09
2023-08-31T08:37:04.978Z,22.07
2023-08-31T08:38:07.218Z,22.11
2023-08-31T08:39:09.354Z,22.24
2023-08-31T08:40:11.645Z,22.77
2023-08-31T08:41:15.085Z,22.86
2023-08-31T08:42:19.111Z,22.64
2023-08-31T08:43:26.130Z,22.68
2023-08-31T08:44:33.021Z,22.82
2023-08-31T08:45:40.925Z,22.90
2023-08-31T08:46:43.589Z,23.02
2023-08-31T08:47:46.314Z,23.13
2023-08-31T08:48:48.549Z,23.70
2023-08-31T08:49:51.055Z,24.01
2023-08-31T08:50:54.599Z,24.47
2023-08-31T08:51:56.844Z,24.57
2023-08-31T08:52:59.413Z,24.77
2023-08-31T08:54:01.848Z,24.92
2023-08-31T08:55:04.598Z,24.72
2023-08-31T08:56:06.761Z,24.35
2023-08-31T08:57:08.916Z,24.25
2023-08-31T08:58:11.268Z,24.19
2023-08-31T08:59:14.621Z,24.18
2023-08-31T09:00:17.224Z,24.38
2023-08-31T09:01:23.822Z,24.29
2023-08-31T09:02:26.043Z,23.95
2023-08-31T09:03:28.256Z,23.99
2023-08-31T09:04:31.982Z,23.76
2023-08-31T09:05:34.444Z,24.10
2023-08-31T09:06:38.107Z,24.32
2023-08-31T09:08:10.536Z,24.72
2023-08-31T09:09:12.761Z,25.20
2023-08-31T09:10:14.887Z,25.21
2023-08-31T09:11:23.633Z,25.27
2023-08-31T09:12:26.015Z,25.45
2023-08-31T09:13:32.230Z,25.87
2023-08-31T09:14:34.368Z,26.24
2023-08-31T09:15:49.863Z,26.36
2023-08-31T09:16:52.945Z,26.66
2023-08-31T09:17:55.308Z,26.83
2023-08-31T09:18:57.772Z,26.90
2023-08-31T09:20:05.439Z,26.92
2023-08-31T09:21:07.640Z,26.76
2023-08-31T09:22:12.034Z,26.62
2023-08-31T09:23:15.221Z,26.15
2023-08-31T09:24:19.271Z,26.03
2023-08-31T09:25:21.913Z,25.61
2023-08-31T09:26:24.123Z,25.34
2023-08-31T09:27:26.348Z,24.78
2023-08-31T09:28:29.420Z,25.04
2023-08-31T09:29:31.674Z,25.20
2023-08-31T09:30:37.951Z,25.27
2023-08-31T09:31:44.349Z,25.32
2023-08-31T09:32:52.922Z,25.08
2023-08-31T09:33:55.123Z,24.69
2023-08-31T09:35:10.420Z,24.78
2023-08-31T09:36:16.959Z,24.80
2023-08-31T09:37:19.096Z,24.80
2023-08-31T09:38:21.330Z,24.59
2023-08-31T09:39:23.475Z,24.63
2023-08-31T09:40:25.614Z,24.50
2023-08-31T09:41:27.870Z,24.66
2023-08-31T09:42:39.536Z,24.69
2023-08-31T09:43:42.874Z,24.77
2023-08-31T09:44:45.946Z,25.26
2023-08-31T09:45:48.539Z,25.76
2023-08-31T09:46:50.785Z,25.78
2023-08-31T09:47:53.199Z,26.09
2023-08-31T09:48:55.823Z,26.19
2023-08-31T09:49:58.981Z,26.13
2023-08-31T09:51:03.446Z,26.07
2023-08-31T09:52:07.657Z,25.77
2023-08-31T09:53:11.978Z,25.70
2023-08-31T09:54:16.801Z,25.62
2023-08-31T09:55:20.233Z,25.88
2023-08-31T09:56:23.461Z,26.09
2023-08-31T09:57:36.120Z,25.92
2023-08-31T09:58:42.453Z,26.11
2023-08-31T09:59:44.711Z,26.61
2023-08-31T10:00:47.642Z,26.89
2023-08-31T10:01:50.006Z,27.33
2023-08-31T10:02:52.335Z,27.66
2023-08-31T10:03:54.644Z,27.73
2023-08-31T10:04:57.838Z,27.69
2023-08-31T10:06:00.211Z,27.86
2023-08-31T10:07:02.374Z,27.93
2023-08-31T10:08:04.961Z,27.73
2023-08-31T10:09:07.576Z,27.09
2023-08-31T10:10:09.896Z,26.68
2023-08-31T10:11:14.724Z,26.20
2023-08-31T10:12:18.245Z,26.12
2023-08-31T10:13:21.117Z,26.29
2023-08-31T10:14:23.638Z,26.07
2023-08-31T10:15:27.844Z,26.03
2023-08-31T10:16:30.011Z,26.32
2023-08-31T10:17:32.480Z,26.18
2023-08-31T10:18:37.909Z,26.13
2023-08-31T10:19:40.321Z,26.32
2023-08-31T10:20:46.640Z,27.07
2023-08-31T10:21:48.902Z,26.91
2023-08-31T10:22:51.032Z,27.19
2023-08-31T10:23:53.445Z,27.17
2023-08-31T10:24:59.828Z,26.45
2023-08-31T10:26:03.030Z,25.95
2023-08-31T10:27:20.638Z,26.12
2023-08-31T10:28:24.189Z,25.95
2023-08-31T10:29:28.888Z,26.00
2023-08-31T10:30:33.593Z,25.88
2023-08-31T10:31:36.063Z,25.97
2023-08-31T10:32:38.237Z,25.52
2023-08-31T10:33:46.176Z,25.38
2023-08-31T10:35:08.086Z,24.81
2023-08-31T10:36:17.872Z,24.68
2023-08-31T10:37:23.582Z,24.61
2023-08-31T10:38:33.004Z,24.43
2023-08-31T10:39:41.251Z,24.49
2023-08-31T10:40:43.542Z,24.45
2023-08-31T10:41:56.417Z,24.52
2023-08-31T10:43:16.636Z,24.63
2023-08-31T10:44:20.829Z,24.45
2023-08-31T10:45:22.954Z,24.26
2023-08-31T10:46:40.020Z,24.33
2023-08-31T10:47:45.431Z,24.18
2023-08-31T10:49:09.992Z,24.38
2023-08-31T10:50:20.742Z,24.70
2023-08-31T10:51:23.574Z,24.83
2023-08-31T10:52:41.743Z,24.73
2023-08-31T10:53:44.340Z,24.82
2023-08-31T10:54:47.811Z,24.85
2023-08-31T10:55:53.890Z,24.93
2023-08-31T10:57:08.919Z,24.89
2023-08-31T10:58:11.584Z,24.61
2023-08-31T10:59:13.764Z,24.36
2023-08-31T11:00:54.248Z,24.32
2023-08-31T11:01:58.486Z,24.42
2023-08-31T11:03:05.705Z,24.47
2023-08-31T11:04:12.070Z,24.40
2023-08-31T11:05:15.899Z,24.46
2023-08-31T11:06:19.975Z,24.52
2023-08-31T11:07:25.695Z,24.52
2023-08-31T11:08:27.832Z,24.17
2023-08-31T11:09:30.627Z,24.22
2023-08-31T11:10:32.848Z,24.05
2023-08-31T11:11:40.990Z,24.14
2023-08-31T11:12:49.265Z,24.11
2023-08-31T11:13:58.099Z,24.26
2023-08-31T11:15:00.316Z,24.35
2023-08-31T11:16:02.559Z,24.42
2023-08-31T11:17:07.582Z,24.41
2023-08-31T11:18:10.299Z,24.54
2023-08-31T11:19:12.529Z,24.45
2023-08-31T11:20:17.957Z,24.21
2023-08-31T11:21:20.972Z,24.20
2023-08-31T11:22:23.198Z,24.32
2023-08-31T11:23:26.387Z,24.56
2023-08-31T11:24:28.703Z,24.89
2023-08-31T11:25:33.929Z,25.08
2023-08-31T11:26:36.160Z,25.27
2023-08-31T11:27:38.550Z,25.48
2023-08-31T11:28:40.703Z,25.92
2023-08-31T11:29:46.337Z,26.31
2023-08-31T11:30:49.649Z,26.61
2023-08-31T11:31:51.984Z,26.68
2023-08-31T11:32:54.796Z,26.43
2023-08-31T11:33:57.279Z,26.20
2023-08-31T11:34:59.579Z,26.15
2023-08-31T11:36:01.699Z,25.99
2023-08-31T11:37:04.018Z,25.85
2023-08-31T11:38:07.070Z,25.86
2023-08-31T11:39:11.375Z,26.19
2023-08-31T11:40:15.810Z,26.31
2023-08-31T11:41:18.194Z,26.67
2023-08-31T11:42:21.927Z,26.52
2023-08-31T11:43:24.744Z,26.44
2023-08-31T11:44:27.117Z,26.84
2023-08-31T11:45:29.777Z,27.11
2023-08-31T11:46:32.345Z,26.84
2023-08-31T11:47:34.926Z,26.52
2023-08-31T11:48:37.129Z,26.23
2023-08-31T11:49:40.958Z,26.27
2023-08-31T11:50:43.471Z,26.08
2023-08-31T11:51:45.973Z,26.12
2023-08-31T11:52:48.264Z,26.10
2023-08-31T11:53:50.935Z,26.30
2023-08-31T11:54:54.138Z,26.55
2023-08-31T11:55:56.411Z,27.13
2023-08-31T11:56:58.580Z,27.10
2023-08-31T11:58:00.750Z,26.68
2023-08-31T11:59:05.268Z,26.49
2023-08-31T12:00:08.051Z,26.49
2023-08-31T12:01:10.230Z,26.25
2023-08-31T12:02:12.403Z,26.23
2023-08-31T12:03:14.815Z,26.32
2023-08-31T12:04:29.546Z,26.35
2023-08-31T12:05:48.699Z,25.97
2023-08-31T12:06:52.320Z,25.68
2023-08-31T12:07:57.776Z,25.55
2023-08-31T12:08:59.968Z,25.45
2023-08-31T12:10:05.254Z,25.39
2023-08-31T12:11:08.115Z,25.36
2023-08-31T12:12:10.293Z,25.41
2023-08-31T12:13:14.327Z,25.59
2023-08-31T12:14:21.448Z,25.49
2023-08-31T12:15:24.448Z,25.85
2023-08-31T12:16:33.288Z,26.80
2023-08-31T12:17:40.701Z,27.38
2023-08-31T12:18:42.863Z,27.98
2023-08-31T12:19:45.202Z,28.30
2023-08-31T12:20:56.188Z,28.88
2023-08-31T12:21:58.935Z,28.58
2023-08-31T12:23:01.274Z,29.08
2023-08-31T12:24:04.873Z,29.26
2023-08-31T12:25:07.503Z,30.19
2023-08-31T12:26:09.905Z,30.65
2023-08-31T12:27:12.337Z,31.13
2023-08-31T12:28:14.668Z,30.67
2023-08-31T12:29:17.058Z,30.43
2023-08-31T12:30:19.296Z,30.10
2023-08-31T12:31:22.707Z,29.12
2023-08-31T12:32:24.889Z,28.66
2023-08-31T12:33:27.063Z,28.36
2023-08-31T12:34:30.232Z,27.87
2023-08-31T12:35:32.382Z,28.09
2023-08-31T12:36:34.631Z,28.13
2023-08-31T12:37:36.764Z,27.91
2023-08-31T12:38:38.936Z,27.97
2023-08-31T12:39:43.405Z,28.28
2023-08-31T12:40:45.619Z,28.66
2023-08-31T12:41:48.124Z,29.11
2023-08-31T12:42:50.236Z,29.31
2023-08-31T12:43:52.372Z,29.53
2023-08-31T12:44:54.585Z,29.90
2023-08-31T12:45:57.289Z,29.91
2023-08-31T12:46:59.572Z,29.85
2023-08-31T12:48:01.742Z,30.33
2023-08-31T12:49:04.918Z,30.07
2023-08-31T12:50:07.937Z,29.67
2023-08-31T12:51:10.094Z,29.57
2023-08-31T12:52:12.235Z,29.72
2023-08-31T12:53:14.621Z,29.48
2023-08-31T12:54:16.978Z,29.73
2023-08-31T12:55:19.164Z,30.13
2023-08-31T12:56:24.494Z,29.95
2023-08-31T12:57:26.599Z,29.93
2023-08-31T12:58:28.880Z,29.98
2023-08-31T12:59:31.021Z,30.16
2023-08-31T13:00:33.278Z,30.48
2023-08-31T13:01:35.457Z,31.15
2023-08-31T13:02:37.671Z,31.54
2023-08-31T13:03:39.991Z,31.17
2023-08-31T13:04:42.308Z,30.77
2023-08-31T13:05:44.546Z,30.01
2023-08-31T13:06:46.718Z,30.24
2023-08-31T13:07:48.986Z,30.16
2023-08-31T13:08:51.680Z,30.32
2023-08-31T13:09:53.854Z,30.22
2023-08-31T13:10:56.098Z,28.83
2023-08-31T13:11:58.248Z,28.42
2023-08-31T13:13:00.369Z,27.79
2023-08-31T13:14:02.493Z,27.40
2023-08-31T13:15:05.059Z,27.28
2023-08-31T13:16:07.280Z,28.01
2023-08-31T13:17:09.451Z,28.27
2023-08-31T13:18:11.977Z,28.12
2023-08-31T13:19:14.690Z,27.98
2023-08-31T13:20:16.864Z,27.71
2023-08-31T13:21:19.031Z,27.52
2023-08-31T13:22:22.001Z,27.19
2023-08-31T13:23:24.567Z,26.65
2023-08-31T13:24:26.769Z,26.43
2023-08-31T13:25:28.917Z,26.30
2023-08-31T13:26:31.016Z,26.60
2023-08-31T13:27:34.359Z,26.49
2023-08-31T13:28:36.529Z,26.46
2023-08-31T13:29:38.666Z,26.17
2023-08-31T13:30:41.159Z,25.96
2023-08-31T13:31:43.503Z,26.08
2023-08-31T13:32:45.697Z,26.95
2023-08-31T13:33:48.245Z,27.58
2023-08-31T13:34:50.371Z,28.62
2023-08-31T13:35:52.644Z,28.98
2023-08-31T13:36:55.124Z,29.64
2023-08-31T13:37:57.612Z,29.99
2023-08-31T13:38:59.749Z,30.38
2023-08-31T13:40:02.256Z,30.81
2023-08-31T13:41:04.831Z,30.91